Time;durP1;ratioP1;P1;durP2;ratioP2;P2;SDS_P1;SDS_P2;PMS_P1;PMS_P2;Temp;Humidity;BMP_temperature;BMP_pressure;BME280_temperature;BME280_humidity;BME280_pressure;Samples;Min_cycle;Max_cycle;Signal;HPM_P1;HPM_P2
2023/05/20 00:00:59;;;;;;;22.53;17.10;;;17.40;99.90;;;;;;5093754;28;20480;-85
2023/05/20 00:03:25;;;;;;;20.93;16.07;;;17.40;99.90;;;;;;5092460;28;20203;-81
2023/05/20 00:05:51;;;;;;;21.93;17.27;;;17.40;99.90;;;;;;5092373;28;20448;-84
2023/05/20 00:08:17;;;;;;;21.33;16.10;;;17.10;99.90;;;;;;5092636;28;20539;-80
2023/05/20 00:10:43;;;;;;;21.17;15.67;;;17.00;99.90;;;;;;5093727;28;20204;-80
2023/05/20 00:13:09;;;;;;;21.70;16.00;;;17.00;99.90;;;;;;5093723;28;20412;-85
2023/05/20 00:15:35;;;;;;;21.23;17.70;;;16.70;99.90;;;;;;5092087;28;20303;-79
2023/05/20 00:18:01;;;;;;;21.17;16.20;;;16.60;99.90;;;;;;5092478;28;20543;-82
2023/05/20 00:20:27;;;;;;;23.20;18.60;;;16.60;99.90;;;;;;5093524;28;20235;-80
2023/05/20 00:22:53;;;;;;;24.03;17.60;;;16.60;99.90;;;;;;5093573;28;20862;-80
2023/05/20 00:25:18;;;;;;;23.20;18.67;;;16.70;99.90;;;;;;5093583;28;20263;-80
2023/05/20 00:27:45;;;;;;;22.43;17.33;;;16.90;99.90;;;;;;5092599;28;20204;-80
2023/05/20 00:30:11;;;;;;;22.90;17.70;;;16.90;99.90;;;;;;5093601;28;20261;-80
2023/05/20 00:32:37;;;;;;;23.70;18.10;;;16.90;99.90;;;;;;5093555;28;20445;-84
2023/05/20 00:35:03;;;;;;;23.13;18.37;;;16.80;99.90;;;;;;5093417;28;20496;-80
2023/05/20 00:37:29;;;;;;;23.20;18.03;;;16.80;99.90;;;;;;5096891;28;20173;-80
2023/05/20 00:39:54;;;;;;;24.07;18.67;;;16.70;99.90;;;;;;5097409;28;20472;-86
2023/05/20 00:42:23;;;;;;;24.00;17.67;;;16.60;99.90;;;;;;5096058;28;20447;-80
2023/05/20 00:44:50;;;;;;;22.50;18.23;;;16.70;99.90;;;;;;5096061;28;20272;-85
2023/05/20 00:47:17;;;;;;;28.00;18.33;;;16.80;99.90;;;;;;5097772;28;20409;-84
2023/05/20 00:49:44;;;;;;;26.03;18.70;;;16.80;99.90;;;;;;5096033;28;20428;-83
2023/05/20 00:52:10;;;;;;;27.77;19.40;;;16.80;99.90;;;;;;5096174;28;20417;-84
2023/05/20 00:54:36;;;;;;;28.67;19.57;;;16.80;99.90;;;;;;5097165;28;20907;-85
2023/05/20 00:57:05;;;;;;;22.63;18.50;;;16.80;99.90;;;;;;5096095;28;20423;-84
2023/05/20 00:59:31;;;;;;;26.00;19.63;;;16.80;99.90;;;;;;5095850;28;20299;-80
2023/05/20 01:01:57;;;;;;;22.50;18.73;;;16.80;99.90;;;;;;5097294;28;20917;-85
2023/05/20 01:04:23;;;;;;;22.43;17.70;;;16.80;99.90;;;;;;5096111;28;20416;-80
2023/05/20 01:06:48;;;;;;;24.30;18.70;;;16.70;99.90;;;;;;5095699;28;20245;-80
2023/05/20 01:09:14;;;;;;;26.70;19.40;;;16.80;99.90;;;;;;5097005;28;20457;-81
2023/05/20 01:12:19;;;;;;;23.50;18.17;;;16.80;99.90;;;;;;5095485;28;20661;-80
2023/05/20 01:14:51;;;;;;;25.33;18.20;;;16.60;99.90;;;;;;5075009;28;20516;-80
2023/05/20 01:17:19;;;;;;;23.87;18.73;;;16.70;99.90;;;;;;5117326;28;20443;-80
2023/05/20 01:19:46;;;;;;;26.33;18.40;;;16.70;99.90;;;;;;5116981;28;20482;-80
2023/05/20 01:22:13;;;;;;;23.40;18.60;;;16.70;99.90;;;;;;5117375;28;20408;-84
2023/05/20 01:24:52;;;;;;;24.20;17.67;;;16.70;99.90;;;;;;5116947;28;20421;-85
2023/05/20 01:27:19;;;;;;;24.33;17.93;;;16.40;99.90;;;;;;5098895;28;20436;-84
2023/05/20 01:29:49;;;;;;;23.40;16.90;;;16.20;99.90;;;;;;5116820;28;20439;-80
2023/05/20 01:32:26;;;;;;;25.07;18.37;;;16.20;99.90;;;;;;5098911;28;20491;-84
2023/05/20 01:34:53;;;;;;;24.23;18.40;;;16.20;99.90;;;;;;5116678;28;20420;-80
2023/05/20 01:37:20;;;;;;;28.03;18.80;;;16.30;99.90;;;;;;5117241;28;20420;-84
2023/05/20 01:39:48;;;;;;;27.10;19.63;;;16.30;99.90;;;;;;5116544;28;20460;-80
2023/05/20 01:42:14;;;;;;;25.93;20.07;;;16.30;99.90;;;;;;5117052;28;20970;-80
2023/05/20 01:44:40;;;;;;;25.90;19.00;;;16.30;99.90;;;;;;5098441;28;20416;-84
2023/05/20 01:47:06;;;;;;;22.90;17.60;;;16.30;99.90;;;;;;5116827;28;20917;-80
2023/05/20 01:49:32;;;;;;;22.83;18.03;;;16.30;99.90;;;;;;5098125;28;20176;-80
2023/05/20 01:51:58;;;;;;;21.27;16.57;;;16.20;99.90;;;;;;5098303;28;20451;-80
2023/05/20 01:54:24;;;;;;;22.20;18.00;;;16.20;99.90;;;;;;5116520;28;20175;-83
2023/05/20 01:56:50;;;;;;;25.97;19.30;;;16.10;99.90;;;;;;5116662;28;20527;-80
2023/05/20 01:59:16;;;;;;;20.30;17.50;;;16.10;99.90;;;;;;5098018;28;20490;-80
2023/05/20 02:01:42;;;;;;;24.30;17.47;;;16.20;99.90;;;;;;5098001;28;20286;-80
2023/05/20 02:04:07;;;;;;;22.27;17.30;;;16.10;99.90;;;;;;5116160;28;20433;-82
2023/05/20 02:06:33;;;;;;;20.77;16.90;;;16.10;99.90;;;;;;5098042;28;20217;-80
2023/05/20 02:08:59;;;;;;;21.10;16.70;;;16.00;99.90;;;;;;5116177;28;20474;-80
2023/05/20 02:11:25;;;;;;;22.93;17.30;;;15.90;99.90;;;;;;5116341;28;20649;-80
2023/05/20 02:13:51;;;;;;;24.60;17.43;;;15.90;99.90;;;;;;5097802;28;20416;-82
2023/05/20 02:16:17;;;;;;;22.90;17.93;;;15.90;99.90;;;;;;5115786;28;20263;-80
2023/05/20 02:18:43;;;;;;;23.93;18.50;;;15.90;99.90;;;;;;5097706;28;20432;-80
2023/05/20 02:21:09;;;;;;;25.20;16.67;;;16.00;99.90;;;;;;5097387;28;20519;-80
2023/05/20 02:23:34;;;;;;;22.40;17.00;;;16.00;99.90;;;;;;5097558;28;20678;-80
2023/05/20 02:26:01;;;;;;;24.73;19.00;;;16.00;99.90;;;;;;5097383;28;20196;-84
2023/05/20 02:28:26;;;;;;;21.77;17.57;;;16.10;99.90;;;;;;5097503;28;20171;-84
2023/05/20 02:30:52;;;;;;;26.10;19.30;;;16.00;99.90;;;;;;5097207;28;20446;-85
2023/05/20 02:33:18;;;;;;;24.57;19.27;;;16.10;99.90;;;;;;5097519;28;20172;-82
2023/05/20 02:35:45;;;;;;;21.80;17.20;;;16.00;99.90;;;;;;5097405;28;20200;-84
2023/05/20 02:38:11;;;;;;;22.13;16.57;;;15.90;99.90;;;;;;5115731;28;20412;-84
2023/05/20 02:40:37;;;;;;;22.53;17.10;;;16.00;99.90;;;;;;5115431;28;20471;-85
2023/05/20 02:43:02;;;;;;;23.80;18.27;;;16.00;99.90;;;;;;5097191;28;20430;-84
2023/05/20 02:45:28;;;;;;;25.87;19.33;;;16.00;99.90;;;;;;5097063;28;20192;-85
2023/05/20 02:47:54;;;;;;;24.47;17.07;;;16.00;99.90;;;;;;5115368;28;20176;-80
2023/05/20 02:50:19;;;;;;;21.67;18.07;;;16.00;99.90;;;;;;5115345;28;20962;-85
2023/05/20 02:52:46;;;;;;;20.80;17.53;;;16.00;99.90;;;;;;5115754;28;20187;-80
2023/05/20 02:55:12;;;;;;;25.93;17.87;;;15.80;99.90;;;;;;5115185;28;20219;-84
2023/05/20 02:57:38;;;;;;;22.37;18.73;;;15.80;99.90;;;;;;5097160;28;20424;-84
2023/05/20 03:00:06;;;;;;;23.27;17.03;;;15.70;99.90;;;;;;5096440;28;20871;-84
2023/05/20 03:02:32;;;;;;;21.73;16.30;;;15.60;99.90;;;;;;5097098;28;20435;-85
2023/05/20 03:04:58;;;;;;;22.60;16.33;;;15.60;99.90;;;;;;5096719;28;20424;-83
2023/05/20 03:07:23;;;;;;;21.20;15.23;;;15.50;99.90;;;;;;5115406;28;21137;-84
2023/05/20 03:09:49;;;;;;;19.40;16.50;;;15.60;99.90;;;;;;5114888;28;20400;-80
2023/05/20 03:12:15;;;;;;;22.10;16.47;;;15.60;99.90;;;;;;5096736;28;20180;-80
2023/05/20 03:14:41;;;;;;;20.63;16.60;;;15.70;99.90;;;;;;5096867;28;20424;-80
2023/05/20 03:17:08;;;;;;;20.90;16.40;;;15.70;99.90;;;;;;5115176;28;20280;-80
2023/05/20 03:19:34;;;;;;;25.10;17.77;;;15.50;99.90;;;;;;5114663;28;20214;-80
2023/05/20 03:22:00;;;;;;;22.20;17.00;;;15.40;99.90;;;;;;5114794;28;20778;-79
2023/05/20 03:24:27;;;;;;;20.87;17.10;;;15.30;99.90;;;;;;5096483;28;20473;-84
2023/05/20 03:26:53;;;;;;;23.77;16.50;;;15.30;99.90;;;;;;5114728;28;20462;-80
2023/05/20 03:29:18;;;;;;;21.43;17.57;;;15.30;99.90;;;;;;5096498;28;20412;-84
2023/05/20 03:31:44;;;;;;;21.00;17.93;;;15.30;99.90;;;;;;5096415;28;20196;-84
2023/05/20 03:34:10;;;;;;;23.23;18.53;;;15.30;99.90;;;;;;5096430;28;20208;-84
2023/05/20 03:36:35;;;;;;;25.13;19.87;;;15.30;99.90;;;;;;5096310;28;20487;-86
2023/05/20 03:39:01;;;;;;;24.43;19.30;;;15.40;99.90;;;;;;5096343;28;20163;-80
2023/05/20 03:41:27;;;;;;;24.00;17.00;;;15.40;99.90;;;;;;5114537;28;20754;-85
2023/05/20 03:43:53;;;;;;;21.70;16.43;;;15.40;99.90;;;;;;5096219;28;20209;-83
2023/05/20 03:46:18;;;;;;;22.07;17.63;;;15.30;99.90;;;;;;5114578;28;20454;-84
2023/05/20 03:48:44;;;;;;;21.67;16.97;;;15.50;99.90;;;;;;5114393;28;20174;-80
2023/05/20 03:51:10;;;;;;;32.63;19.03;;;15.50;99.90;;;;;;5114281;28;20713;-84
2023/05/20 03:53:35;;;;;;;27.10;19.57;;;15.50;99.90;;;;;;5114344;28;20431;-84
2023/05/20 03:56:01;;;;;;;21.70;17.93;;;15.50;99.90;;;;;;5095925;28;20675;-80
2023/05/20 03:58:28;;;;;;;24.07;19.10;;;15.60;99.90;;;;;;5096021;28;20624;-84
2023/05/20 04:00:54;;;;;;;28.07;19.70;;;15.60;99.90;;;;;;5114228;28;20619;-84
2023/05/20 04:03:21;;;;;;;27.17;19.17;;;15.70;99.90;;;;;;5114273;28;20760;-84
2023/05/20 04:05:47;;;;;;;28.43;19.70;;;15.70;99.90;;;;;;5095885;28;20794;-80
2023/05/20 04:08:13;;;;;;;22.27;17.73;;;15.80;99.90;;;;;;5114176;28;20416;-80
2023/05/20 04:10:42;;;;;;;26.63;19.50;;;15.90;99.90;;;;;;5114606;28;20985;-80
2023/05/20 04:13:08;;;;;;;28.80;20.03;;;15.90;99.90;;;;;;5118437;28;20176;-79
2023/05/20 04:15:37;;;;;;;28.80;20.33;;;15.90;99.90;;;;;;5118001;28;20567;-79
2023/05/20 04:18:05;;;;;;;27.97;20.97;;;16.00;99.90;;;;;;5100090;28;20408;-79
2023/05/20 04:20:31;;;;;;;27.30;20.53;;;16.00;99.90;;;;;;5118054;28;20471;-84
2023/05/20 04:22:56;;;;;;;28.83;19.63;;;16.10;99.90;;;;;;5099917;28;20419;-84
2023/05/20 04:25:22;;;;;;;28.07;20.87;;;16.10;99.90;;;;;;5099819;28;20443;-84
2023/05/20 04:27:48;;;;;;;29.10;21.03;;;16.20;99.90;;;;;;5099535;28;20202;-84
2023/05/20 04:30:17;;;;;;;32.10;21.80;;;16.30;99.90;;;;;;5118117;28;20936;-80
2023/05/20 04:32:42;;;;;;;28.23;21.67;;;16.40;99.90;;;;;;5118507;28;20411;-80
2023/05/20 04:35:10;;;;;;;31.03;22.53;;;16.50;99.90;;;;;;5099612;28;20457;-84
2023/05/20 04:37:37;;;;;;;29.07;21.47;;;16.50;99.90;;;;;;5099850;28;20184;-80
2023/05/20 04:40:03;;;;;;;27.13;20.93;;;16.50;99.90;;;;;;5099490;28;20857;-83
2023/05/20 04:42:29;;;;;;;30.60;21.33;;;16.50;99.90;;;;;;5099708;28;20447;-84
2023/05/20 04:44:55;;;;;;;30.80;23.60;;;16.60;99.90;;;;;;5117703;28;20474;-85
2023/05/20 04:47:20;;;;;;;28.10;22.70;;;16.70;99.90;;;;;;5099635;28;20172;-85
2023/05/20 04:49:46;;;;;;;33.03;21.90;;;16.80;99.90;;;;;;5099347;28;20527;-80
2023/05/20 04:52:12;;;;;;;28.00;21.37;;;16.90;99.90;;;;;;5118107;28;20187;-85
2023/05/20 04:54:39;;;;;;;30.37;22.47;;;16.90;99.90;;;;;;5117570;28;20440;-84
2023/05/20 04:57:05;;;;;;;28.40;20.90;;;17.10;99.90;;;;;;5117863;28;20696;-84
2023/05/20 04:59:31;;;;;;;29.20;22.67;;;17.10;99.90;;;;;;5099242;28;20980;-80
2023/05/20 05:01:56;;;;;;;30.10;21.67;;;17.20;99.90;;;;;;5117354;28;20446;-80
2023/05/20 05:04:22;;;;;;;35.33;25.30;;;17.30;99.90;;;;;;5099305;28;20228;-85
2023/05/20 05:06:48;;;;;;;32.63;23.93;;;17.40;99.90;;;;;;5099123;28;20199;-80
2023/05/20 05:09:14;;;;;;;33.30;24.33;;;17.50;99.90;;;;;;5117303;28;20176;-80
2023/05/20 05:11:40;;;;;;;32.70;22.47;;;17.50;99.90;;;;;;5117532;28;20519;-84
2023/05/20 05:14:06;;;;;;;28.73;22.23;;;17.60;99.90;;;;;;5098882;28;20424;-83
2023/05/20 05:16:31;;;;;;;33.33;23.27;;;17.70;99.90;;;;;;5098676;28;20586;-80
2023/05/20 05:18:57;;;;;;;28.97;22.30;;;17.80;99.90;;;;;;5117088;28;20168;-83
2023/05/20 05:21:23;;;;;;;29.13;22.27;;;17.90;99.90;;;;;;5116780;28;20216;-80
2023/05/20 05:23:48;;;;;;;30.33;21.83;;;18.00;99.90;;;;;;5098790;28;20171;-82
2023/05/20 05:26:14;;;;;;;27.90;22.37;;;18.00;99.90;;;;;;5117188;28;20196;-80
2023/05/20 05:28:42;;;;;;;29.53;21.47;;;18.10;99.90;;;;;;5117088;28;20629;-84
2023/05/20 05:31:08;;;;;;;29.97;21.10;;;18.10;99.90;;;;;;5116922;28;20200;-80
2023/05/20 05:33:34;;;;;;;32.10;22.23;;;18.20;99.90;;;;;;5116866;28;20399;-81
2023/05/20 05:36:01;;;;;;;29.87;22.70;;;18.30;99.90;;;;;;5116704;28;20435;-84
2023/05/20 05:38:26;;;;;;;28.30;21.60;;;18.40;99.90;;;;;;5096920;28;20203;-80
2023/05/20 05:40:52;;;;;;;28.57;22.73;;;18.40;99.90;;;;;;5113843;28;20741;-85
2023/05/20 05:43:18;;;;;;;29.47;22.90;;;18.40;99.90;;;;;;5097509;28;20687;-84
2023/05/20 05:45:44;;;;;;;31.80;22.63;;;18.50;99.90;;;;;;5097784;28;20223;-80
2023/05/20 05:48:10;;;;;;;31.00;21.63;;;18.60;99.90;;;;;;5098727;28;20686;-84
2023/05/20 05:50:35;;;;;;;28.10;22.27;;;18.70;99.90;;;;;;5097813;28;20563;-81
2023/05/20 05:53:01;;;;;;;28.63;22.47;;;18.70;99.90;;;;;;5115558;28;20400;-80
2023/05/20 05:55:28;;;;;;;30.80;22.20;;;18.80;99.90;;;;;;5116300;28;20278;-85
2023/05/20 05:57:54;;;;;;;27.97;21.60;;;18.90;99.90;;;;;;5098180;28;20188;-85
2023/05/20 06:00:20;;;;;;;29.20;21.33;;;19.00;99.90;;;;;;5097911;28;20465;-84
2023/05/20 06:02:46;;;;;;;24.27;19.20;;;19.10;99.90;;;;;;5096353;28;20206;-80
2023/05/20 06:05:12;;;;;;;25.70;20.10;;;19.20;99.90;;;;;;5094567;28;20625;-84
2023/05/20 06:07:37;;;;;;;26.47;20.37;;;19.30;99.90;;;;;;5094086;28;20517;-80
2023/05/20 06:10:03;;;;;;;27.57;21.63;;;19.40;99.90;;;;;;5094625;28;20674;-80
2023/05/20 06:12:29;;;;;;;24.30;19.60;;;19.40;99.90;;;;;;5096126;28;20268;-84
2023/05/20 06:14:55;;;;;;;23.83;19.30;;;19.50;99.90;;;;;;5095445;28;20604;-80
2023/05/20 06:17:21;;;;;;;28.00;20.57;;;19.60;99.90;;;;;;5113920;28;20643;-85
2023/05/20 06:19:46;;;;;;;25.10;18.97;;;19.70;99.90;;;;;;5097478;28;20249;-85
2023/05/20 06:22:12;;;;;;;24.50;18.87;;;19.80;99.90;;;;;;5097824;28;20274;-85
2023/05/20 06:24:37;;;;;;;26.30;18.10;;;19.90;99.90;;;;;;5096727;28;20644;-81
2023/05/20 06:27:03;;;;;;;22.90;18.03;;;19.90;99.90;;;;;;5095560;28;20646;-84
2023/05/20 06:29:29;;;;;;;21.20;18.20;;;20.00;99.90;;;;;;5095487;28;20202;-83
2023/05/20 06:31:55;;;;;;;23.80;17.83;;;20.10;99.90;;;;;;5113828;28;20221;-80
2023/05/20 06:34:21;;;;;;;22.30;18.13;;;20.20;99.90;;;;;;5094675;28;20182;-84
2023/05/20 06:36:47;;;;;;;21.40;17.10;;;20.20;99.90;;;;;;5095176;28;20748;-80
2023/05/20 06:39:12;;;;;;;21.57;17.27;;;20.40;99.90;;;;;;5113547;28;20403;-82
2023/05/20 06:41:38;;;;;;;19.00;15.47;;;20.40;99.90;;;;;;5097380;28;20236;-85
2023/05/20 06:44:05;;;;;;;20.00;16.50;;;20.50;99.90;;;;;;5097250;28;20728;-84
2023/05/20 06:46:31;;;;;;;22.60;16.97;;;20.60;99.90;;;;;;5115701;28;20965;-80
2023/05/20 06:48:57;;;;;;;23.03;16.73;;;20.70;99.90;;;;;;5115401;28;20399;-84
2023/05/20 06:51:22;;;;;;;17.63;15.20;;;20.80;99.90;;;;;;5097162;28;20203;-80
2023/05/20 06:53:48;;;;;;;20.77;16.70;;;20.80;99.90;;;;;;5115060;28;20179;-84
2023/05/20 06:56:13;;;;;;;16.90;14.70;;;20.90;99.90;;;;;;5115240;28;20292;-81
2023/05/20 06:58:39;;;;;;;21.30;16.70;;;20.90;99.90;;;;;;5095649;28;20210;-81
2023/05/20 07:01:05;;;;;;;18.27;16.33;;;21.00;99.90;;;;;;5113893;28;20310;-85
2023/05/20 07:03:31;;;;;;;19.07;15.57;;;21.10;99.90;;;;;;5096062;28;20176;-81
2023/05/20 07:05:56;;;;;;;20.10;15.70;;;21.20;99.90;;;;;;5096185;28;20276;-81
2023/05/20 07:08:22;;;;;;;19.90;15.87;;;21.20;99.90;;;;;;5096858;28;20191;-80
2023/05/20 07:10:47;;;;;;;23.77;16.80;;;21.20;99.90;;;;;;5096741;28;20585;-85
2023/05/20 07:13:13;;;;;;;21.23;17.00;;;21.20;99.90;;;;;;5096670;28;20179;-84
2023/05/20 07:15:39;;;;;;;19.43;15.47;;;21.30;99.90;;;;;;5112779;28;20241;-83
2023/05/20 07:18:05;;;;;;;19.53;15.87;;;21.40;99.90;;;;;;5094459;28;20180;-81
2023/05/20 07:20:31;;;;;;;20.53;16.60;;;21.40;99.90;;;;;;5112430;28;20688;-81
2023/05/20 07:22:57;;;;;;;19.07;16.20;;;21.50;99.90;;;;;;5112859;28;20440;-81
2023/05/20 07:25:23;;;;;;;18.97;15.77;;;21.50;99.90;;;;;;5094336;28;21032;-85
2023/05/20 07:27:49;;;;;;;16.37;14.67;;;21.50;99.90;;;;;;5094242;28;20203;-81
2023/05/20 07:30:14;;;;;;;20.27;16.30;;;21.60;99.90;;;;;;5095338;28;20609;-85
2023/05/20 07:32:41;;;;;;;22.20;17.20;;;21.70;99.90;;;;;;5096599;28;20583;-84
2023/05/20 07:35:07;;;;;;;16.67;13.87;;;21.80;99.90;;;;;;5096247;28;20661;-81
2023/05/20 07:37:32;;;;;;;18.80;14.33;;;21.80;99.90;;;;;;5115171;28;20428;-85
2023/05/20 07:39:58;;;;;;;17.60;13.97;;;21.90;99.90;;;;;;5096454;28;20483;-81
2023/05/20 07:42:23;;;;;;;19.83;15.17;;;21.90;99.90;;;;;;5115063;28;20182;-81
2023/05/20 07:44:49;;;;;;;21.47;14.60;;;22.00;99.90;;;;;;5114224;28;20239;-81
2023/05/20 07:47:15;;;;;;;18.73;14.93;;;22.00;99.90;;;;;;5114798;28;20176;-80
2023/05/20 07:49:40;;;;;;;16.60;14.30;;;22.20;99.90;;;;;;5114346;28;20203;-81
2023/05/20 07:52:06;;;;;;;16.83;14.43;;;22.20;99.90;;;;;;5095937;28;20179;-85
2023/05/20 07:54:33;;;;;;;17.57;13.20;;;22.30;99.90;;;;;;5096049;28;20180;-83
2023/05/20 07:56:59;;;;;;;17.67;14.83;;;22.30;99.90;;;;;;5114594;28;20524;-85
2023/05/20 07:59:25;;;;;;;15.67;13.33;;;22.40;99.90;;;;;;5114223;28;20400;-81
2023/05/20 08:01:51;;;;;;;15.00;12.47;;;22.40;99.90;;;;;;5114380;28;21019;-86
2023/05/20 08:04:16;;;;;;;14.50;12.07;;;22.50;99.90;;;;;;5095881;28;20175;-85
2023/05/20 08:06:43;;;;;;;13.90;12.47;;;22.60;99.90;;;;;;5096032;28;20212;-80
2023/05/20 08:09:09;;;;;;;14.73;11.20;;;22.60;99.90;;;;;;5114104;28;20164;-81
2023/05/20 08:11:34;;;;;;;13.77;12.40;;;22.70;99.90;;;;;;5095790;28;20855;-81
2023/05/20 08:14:01;;;;;;;13.30;11.80;;;22.80;99.90;;;;;;5114086;28;20609;-85
2023/05/20 08:16:27;;;;;;;13.77;12.30;;;22.80;99.90;;;;;;5095480;28;20279;-80
2023/05/20 08:18:52;;;;;;;14.40;11.47;;;22.90;99.90;;;;;;5109269;28;20928;-86
2023/05/20 08:21:18;;;;;;;12.40;11.10;;;23.00;99.90;;;;;;5112827;28;20478;-81
2023/05/20 08:23:44;;;;;;;12.53;9.80;;;23.00;99.90;;;;;;5093887;28;20180;-85
2023/05/20 08:26:10;;;;;;;14.87;10.87;;;23.10;99.90;;;;;;5094834;28;20247;-85
2023/05/20 08:28:38;;;;;;;11.30;10.10;;;23.20;99.90;;;;;;5113924;28;20177;-86
2023/05/20 08:31:04;;;;;;;10.97;9.90;;;23.30;99.90;;;;;;5113886;28;20810;-85
2023/05/20 08:33:30;;;;;;;11.60;10.40;;;23.30;99.90;;;;;;5095574;28;20412;-83
2023/05/20 08:35:56;;;;;;;11.33;10.17;;;23.50;99.90;;;;;;5095480;28;20557;-85
2023/05/20 08:38:21;;;;;;;10.63;9.53;;;23.50;99.90;;;;;;5095636;28;20205;-80
2023/05/20 08:40:55;;;;;;;11.23;10.10;;;23.60;99.90;;;;;;5113221;28;20212;-85
2023/05/20 08:43:25;;;;;;;10.60;9.60;;;23.60;99.90;;;;;;5093488;28;20183;-81
2023/05/20 08:45:53;;;;;;;10.30;9.27;;;23.70;99.90;;;;;;5093335;28;20433;-81
2023/05/20 08:48:22;;;;;;;9.87;8.83;;;23.80;99.90;;;;;;5111707;28;20817;-81
2023/05/20 08:50:50;;;;;;;9.97;9.00;;;23.80;99.90;;;;;;5111503;28;20480;-81
2023/05/20 08:53:16;;;;;;;11.33;10.03;;;23.90;99.90;;;;;;5093579;28;20504;-81
2023/05/20 08:55:46;;;;;;;10.13;9.20;;;24.00;99.90;;;;;;5093258;28;21018;-86
2023/05/20 08:58:11;;;;;;;10.47;9.40;;;24.10;99.90;;;;;;5098241;28;20418;-81
2023/05/20 09:00:37;;;;;;;11.30;10.20;;;24.10;99.90;;;;;;5099255;28;20477;-81
2023/05/20 09:03:04;;;;;;;12.03;9.83;;;24.20;99.90;;;;;;5099214;28;20183;-80
2023/05/20 09:05:30;;;;;;;9.90;8.90;;;24.30;99.90;;;;;;5133210;27;20290;-85
2023/05/20 09:08:10;;;;;;;11.00;9.70;;;24.30;99.90;;;;;;5133154;27;20509;-85
2023/05/20 09:10:39;;;;;;;10.70;9.60;;;24.40;99.90;;;;;;5117304;28;20418;-85
2023/05/20 09:13:06;;;;;;;10.40;9.20;;;24.60;99.90;;;;;;5133081;27;20464;-85
2023/05/20 09:15:32;;;;;;;10.83;9.30;;;24.60;99.90;;;;;;5116783;28;20470;-85
2023/05/20 09:18:16;;;;;;;12.33;9.40;;;24.70;99.90;;;;;;5098922;28;20441;-81
2023/05/20 09:20:45;;;;;;;10.60;9.50;;;24.70;99.90;;;;;;5117275;28;20878;-85
2023/05/20 09:23:11;;;;;;;10.80;9.70;;;24.90;99.90;;;;;;5098838;28;20419;-80
2023/05/20 09:25:37;;;;;;;10.37;9.33;;;24.90;99.90;;;;;;5098751;28;20826;-85
2023/05/20 09:28:07;;;;;;;9.90;9.03;;;25.00;99.90;;;;;;5098804;28;20191;-86
2023/05/20 09:30:33;;;;;;;10.57;9.07;;;25.10;99.90;;;;;;5116840;28;20512;-80
2023/05/20 09:33:00;;;;;;;10.80;8.87;;;25.10;99.90;;;;;;5116920;28;20443;-85
2023/05/20 09:35:27;;;;;;;11.97;8.93;;;25.20;99.90;;;;;;5098504;28;20211;-85
2023/05/20 09:37:55;;;;;;;10.07;9.00;;;25.30;99.90;;;;;;5116814;28;20767;-85
2023/05/20 09:40:26;;;;;;;10.47;8.60;;;25.30;99.90;;;;;;5116606;28;20475;-81
2023/05/20 09:43:00;;;;;;;9.90;8.90;;;25.30;99.90;;;;;;5098823;28;20522;-86
2023/05/20 09:45:26;;;;;;;10.53;9.30;;;25.30;99.90;;;;;;5098257;28;20444;-80
2023/05/20 09:47:53;;;;;;;9.57;8.57;;;25.40;99.90;;;;;;5132360;27;20469;-84
2023/05/20 09:50:23;;;;;;;9.33;8.43;;;25.40;99.90;;;;;;5098291;28;20206;-81
2023/05/20 09:52:50;;;;;;;10.93;9.53;;;25.40;99.90;;;;;;5116593;28;20785;-85
2023/05/20 09:55:21;;;;;;;11.07;8.93;;;25.40;99.90;;;;;;5098094;28;20523;-81
2023/05/20 09:57:47;;;;;;;10.00;9.00;;;25.50;99.90;;;;;;5098480;28;20415;-86
2023/05/20 10:00:16;;;;;;;10.37;9.27;;;25.40;99.90;;;;;;5097983;28;20548;-84
2023/05/20 10:02:44;;;;;;;10.90;9.40;;;25.50;99.90;;;;;;5116923;28;20167;-86
2023/05/20 10:05:20;;;;;;;10.00;9.00;;;25.40;99.90;;;;;;5098002;28;20777;-81
2023/05/20 10:08:16;;;;;;;10.93;9.67;;;25.50;99.90;;;;;;5097686;28;20465;-81
2023/05/20 10:10:51;;;;;;;10.50;9.40;;;25.50;99.90;;;;;;5131865;27;20447;-86
2023/05/20 10:13:30;;;;;;;11.80;9.83;;;25.60;99.90;;;;;;5097866;28;20439;-81
2023/05/20 10:16:23;;;;;;;11.27;9.80;;;25.60;99.90;;;;;;5097655;28;20467;-81
2023/05/20 10:18:48;;;;;;;14.87;10.27;;;25.60;99.90;;;;;;5097748;28;20434;-86
2023/05/20 10:21:23;;;;;;;10.27;9.00;;;25.60;99.90;;;;;;5115987;28;20475;-82
2023/05/20 10:23:52;;;;;;;11.47;10.30;;;25.60;99.90;;;;;;5097954;28;20679;-81
2023/05/20 10:26:18;;;;;;;10.00;9.10;;;25.70;99.90;;;;;;5097630;28;20480;-86
2023/05/20 10:28:45;;;;;;;11.90;10.67;;;25.70;99.90;;;;;;5097634;28;20959;-85
2023/05/20 10:31:21;;;;;;;10.83;9.70;;;25.80;99.90;;;;;;5115835;28;20424;-85
2023/05/20 10:33:48;;;;;;;10.27;9.27;;;25.80;99.90;;;;;;5115747;28;20397;-86
2023/05/20 10:36:25;;;;;;;9.83;8.40;;;25.90;99.90;;;;;;5097305;28;20446;-86
2023/05/20 10:38:55;;;;;;;9.43;8.53;;;25.90;99.90;;;;;;5115598;28;20408;-81
2023/05/20 10:41:26;;;;;;;11.53;10.37;;;25.90;99.90;;;;;;5097210;28;20834;-85
2023/05/20 10:44:02;;;;;;;10.90;9.60;;;25.90;99.90;;;;;;5097162;28;20487;-81
2023/05/20 10:46:29;;;;;;;10.10;9.20;;;26.00;99.90;;;;;;5097110;28;20475;-85
2023/05/20 10:48:55;;;;;;;10.90;8.40;;;26.00;99.90;;;;;;5115467;28;20405;-80
2023/05/20 10:51:20;;;;;;;11.17;8.90;;;26.00;99.90;;;;;;5115520;28;20440;-81
2023/05/20 10:53:46;;;;;;;11.27;10.17;;;26.00;99.90;;;;;;5097094;28;20175;-80
2023/05/20 10:56:20;;;;;;;10.93;9.93;;;26.00;99.90;;;;;;5094974;28;20207;-80
2023/05/20 10:58:46;;;;;;;13.53;10.33;;;26.00;99.90;;;;;;5114574;28;20175;-86
2023/05/20 11:01:13;;;;;;;10.60;9.50;;;26.00;99.90;;;;;;5094915;28;20476;-85
2023/05/20 11:03:40;;;;;;;11.07;9.97;;;26.00;99.90;;;;;;5096971;28;20416;-85
2023/05/20 11:06:16;;;;;;;10.73;9.67;;;26.10;99.90;;;;;;5114917;28;20430;-81
2023/05/20 11:08:43;;;;;;;10.30;9.00;;;26.00;99.90;;;;;;5115293;28;20748;-86
2023/05/20 11:11:13;;;;;;;12.53;10.93;;;26.10;99.90;;;;;;5096704;28;20489;-86
2023/05/20 11:13:39;;;;;;;11.57;9.30;;;26.20;99.90;;;;;;5114037;28;20412;-81
2023/05/20 11:16:05;;;;;;;11.23;9.00;;;26.20;99.90;;;;;;5094265;28;20475;-84
2023/05/20 11:18:32;;;;;;;10.73;9.60;;;26.20;99.90;;;;;;5094507;28;20457;-81
2023/05/20 11:20:59;;;;;;;11.50;10.30;;;26.20;99.90;;;;;;5093972;28;20497;-86
2023/05/20 11:23:27;;;;;;;10.80;9.70;;;26.10;99.90;;;;;;5094477;28;20810;-81
2023/05/20 11:25:54;;;;;;;13.00;10.23;;;26.10;99.90;;;;;;5094172;28;20986;-85
2023/05/20 11:28:20;;;;;;;9.83;8.80;;;26.10;99.90;;;;;;5094783;28;20404;-85
2023/05/20 11:30:47;;;;;;;10.43;9.40;;;26.10;99.90;;;;;;5096330;28;20833;-81
2023/05/20 11:33:14;;;;;;;10.47;9.37;;;26.20;99.90;;;;;;5096359;28;20512;-85
2023/05/20 11:35:51;;;;;;;10.83;9.40;;;26.20;99.90;;;;;;5096257;28;20428;-81
2023/05/20 11:38:18;;;;;;;11.30;10.20;;;26.30;99.90;;;;;;5114611;28;20981;-81
2023/05/20 11:40:52;;;;;;;15.30;8.97;;;26.30;99.90;;;;;;5114345;28;20468;-80
2023/05/20 11:43:19;;;;;;;12.60;10.10;;;26.30;99.90;;;;;;5096326;28;20420;-85
2023/05/20 11:45:47;;;;;;;12.57;9.43;;;26.40;99.90;;;;;;5096036;28;20479;-80
2023/05/20 11:48:14;;;;;;;10.23;9.10;;;26.40;99.90;;;;;;5096046;28;20416;-81
2023/05/20 11:50:45;;;;;;;11.93;9.50;;;26.30;99.90;;;;;;5114189;28;20432;-85
2023/05/20 11:53:15;;;;;;;10.57;9.57;;;26.40;99.90;;;;;;5096011;28;20550;-81
2023/05/20 11:55:49;;;;;;;12.70;10.20;;;26.50;99.90;;;;;;5114586;28;20758;-85
2023/05/20 11:58:22;;;;;;;17.77;10.77;;;26.50;99.90;;;;;;5114351;28;20489;-81
2023/05/20 12:00:48;;;;;;;13.70;10.53;;;26.50;99.90;;;;;;5114197;28;20478;-85
2023/05/20 12:03:14;;;;;;;10.80;9.70;;;26.50;99.90;;;;;;5096323;28;20461;-85
2023/05/20 12:05:40;;;;;;;11.90;9.57;;;26.50;99.90;;;;;;5114205;28;20420;-86
2023/05/20 12:08:06;;;;;;;10.90;9.43;;;26.50;99.90;;;;;;5095900;28;20408;-84
2023/05/20 12:10:32;;;;;;;11.10;9.77;;;26.50;99.90;;;;;;5095919;28;20195;-86
2023/05/20 12:12:58;;;;;;;14.20;10.53;;;26.60;99.90;;;;;;5095792;28;20794;-81
2023/05/20 12:15:24;;;;;;;11.37;9.60;;;26.60;99.90;;;;;;5113607;28;20490;-85
2023/05/20 12:17:52;;;;;;;11.37;10.33;;;26.70;99.90;;;;;;5114110;28;20408;-81
2023/05/20 12:20:22;;;;;;;11.00;9.93;;;26.70;99.90;;;;;;5113882;28;20242;-85
2023/05/20 12:22:48;;;;;;;11.97;10.80;;;26.70;99.90;;;;;;5095926;28;20424;-86
2023/05/20 12:25:17;;;;;;;11.47;10.37;;;26.70;99.90;;;;;;5113968;28;20920;-85
2023/05/20 12:27:47;;;;;;;11.80;10.30;;;26.70;99.90;;;;;;5113894;28;20412;-86
2023/05/20 12:30:17;;;;;;;11.87;10.67;;;26.80;99.90;;;;;;5113781;28;20435;-80